Time;durP1;ratioP1;P1;durP2;ratioP2;P2;SDS_P1;SDS_P2;PMS_P1;PMS_P2;Temp;Humidity;BMP_temperature;BMP_pressure;BME280_temperature;BME280_humidity;BME280_pressure;Samples;Min_cycle;Max_cycle;Signal;HPM_P1;HPM_P2
2021/10/20 00:00:50;;;;;;;8.82;3.15;;;14.50;93.60;;;;;;5024601;28;20119;-75
2021/10/20 00:03:15;;;;;;;4.78;3.13;;;14.50;93.60;;;;;;5047191;28;20025;-76
2021/10/20 00:05:41;;;;;;;3.97;2.90;;;14.50;93.60;;;;;;5039892;28;20091;-75
2021/10/20 00:08:07;;;;;;;4.50;3.25;;;14.40;93.60;;;;;;5047148;28;20442;-75
2021/10/20 00:10:34;;;;;;;4.25;3.03;;;14.40;93.70;;;;;;5044080;28;20029;-75
2021/10/20 00:13:00;;;;;;;4.10;3.17;;;14.40;93.70;;;;;;5029322;28;20029;-75
2021/10/20 00:15:26;;;;;;;3.80;3.22;;;14.40;93.70;;;;;;5042812;28;20033;-76
2021/10/20 00:17:52;;;;;;;4.80;3.33;;;14.40;93.70;;;;;;5046710;28;20094;-76
2021/10/20 00:20:21;;;;;;;11.48;3.22;;;14.40;93.60;;;;;;5028491;28;20037;-75
2021/10/20 00:22:48;;;;;;;13.90;3.40;;;14.40;93.70;;;;;;5047299;28;20044;-76
2021/10/20 00:25:14;;;;;;;9.00;3.47;;;14.30;93.80;;;;;;5042860;28;20124;-76
2021/10/20 00:27:40;;;;;;;6.30;3.42;;;14.30;93.80;;;;;;5026373;28;20026;-75
2021/10/20 00:30:07;;;;;;;4.72;2.92;;;14.30;93.80;;;;;;5047451;28;20382;-75
2021/10/20 00:32:32;;;;;;;6.85;2.95;;;14.30;93.80;;;;;;5048077;28;20057;-76
2021/10/20 00:34:58;;;;;;;5.15;2.90;;;14.20;93.80;;;;;;5043923;28;20076;-76
2021/10/20 00:37:23;;;;;;;6.55;3.10;;;14.20;93.90;;;;;;5045189;28;20047;-76
2021/10/20 00:39:49;;;;;;;10.43;3.20;;;14.20;93.80;;;;;;5044822;28;20049;-76
2021/10/20 00:42:19;;;;;;;6.13;3.08;;;14.20;93.80;;;;;;5030963;28;20028;-75
2021/10/20 00:44:59;;;;;;;4.32;3.28;;;14.10;93.80;;;;;;5025997;28;20044;-75
2021/10/20 00:47:26;;;;;;;4.68;3.22;;;14.10;93.80;;;;;;5047428;28;20074;-75
2021/10/20 00:49:53;;;;;;;5.13;2.95;;;14.10;93.80;;;;;;5046843;28;20497;-75
2021/10/20 00:52:20;;;;;;;4.97;3.20;;;14.10;93.90;;;;;;5050039;28;20685;-76
2021/10/20 00:54:47;;;;;;;6.95;3.10;;;14.00;93.90;;;;;;5031926;28;20036;-76
2021/10/20 00:57:15;;;;;;;6.15;3.22;;;14.10;94.20;;;;;;5032296;28;20617;-75
2021/10/20 00:59:41;;;;;;;4.32;3.05;;;14.00;93.90;;;;;;5046848;28;20033;-76
2021/10/20 01:02:08;;;;;;;3.75;3.25;;;14.10;93.90;;;;;;5029969;28;20025;-76
2021/10/20 01:04:35;;;;;;;5.28;3.80;;;14.00;93.90;;;;;;5029370;28;20117;-75
2021/10/20 01:07:00;;;;;;;5.07;3.80;;;14.10;93.90;;;;;;5031989;28;20021;-75
2021/10/20 01:09:26;;;;;;;7.97;3.53;;;14.10;93.80;;;;;;5012801;28;20029;-76
2021/10/20 01:11:53;;;;;;;5.35;3.88;;;14.10;93.80;;;;;;5031972;28;20021;-76
2021/10/20 01:14:20;;;;;;;6.28;3.63;;;14.10;93.80;;;;;;5030319;28;20073;-76
2021/10/20 01:16:46;;;;;;;6.90;3.35;;;14.00;93.70;;;;;;5031139;28;20036;-75
2021/10/20 01:19:14;;;;;;;7.45;3.38;;;14.10;93.70;;;;;;5010287;28;20029;-76
2021/10/20 01:21:40;;;;;;;4.20;3.15;;;14.10;93.80;;;;;;5047670;28;20485;-76
2021/10/20 01:24:06;;;;;;;6.88;3.00;;;14.00;93.70;;;;;;5014400;28;20094;-75
2021/10/20 01:26:33;;;;;;;4.95;3.13;;;14.10;93.80;;;;;;5049421;28;20024;-76
2021/10/20 01:28:58;;;;;;;2.97;2.60;;;14.10;93.80;;;;;;5059433;27;20029;-76
2021/10/20 01:31:24;;;;;;;6.10;3.63;;;14.10;93.70;;;;;;5054179;27;20650;-76
2021/10/20 01:33:50;;;;;;;4.80;3.17;;;14.00;93.60;;;;;;5046795;28;20036;-75
2021/10/20 01:36:16;;;;;;;4.25;2.85;;;14.00;93.60;;;;;;5066073;27;20038;-75
2021/10/20 01:38:41;;;;;;;4.53;3.33;;;14.10;93.60;;;;;;5044619;28;20047;-76
2021/10/20 01:41:07;;;;;;;4.75;3.20;;;14.10;93.60;;;;;;5028600;28;20393;-76
2021/10/20 01:43:43;;;;;;;3.47;2.95;;;14.10;93.60;;;;;;5029284;28;20025;-76
2021/10/20 01:46:19;;;;;;;5.43;2.92;;;14.00;93.60;;;;;;5044175;28;20587;-75
2021/10/20 01:48:46;;;;;;;6.60;3.55;;;14.10;93.60;;;;;;5045852;28;20040;-75
2021/10/20 01:51:12;;;;;;;4.75;3.40;;;14.00;93.60;;;;;;5011724;28;20033;-76
2021/10/20 01:53:38;;;;;;;4.85;3.10;;;14.00;93.50;;;;;;5048630;28;20080;-76
2021/10/20 01:56:05;;;;;;;4.82;3.03;;;14.00;93.60;;;;;;5026408;28;20168;-75
2021/10/20 01:58:32;;;;;;;6.15;3.17;;;14.00;93.70;;;;;;5048903;28;20037;-75
2021/10/20 02:00:58;;;;;;;3.20;2.80;;;14.00;93.70;;;;;;5044868;28;20029;-75
2021/10/20 02:03:27;;;;;;;6.10;3.05;;;13.90;93.70;;;;;;5047970;27;20029;-75
2021/10/20 02:05:56;;;;;;;6.25;3.15;;;13.90;93.70;;;;;;5030553;28;20040;-75
2021/10/20 02:08:22;;;;;;;5.25;3.05;;;13.90;93.70;;;;;;5049032;28;20021;-76
2021/10/20 02:10:48;;;;;;;4.70;3.03;;;13.90;93.60;;;;;;5029154;28;20040;-76
2021/10/20 02:13:14;;;;;;;6.18;3.13;;;13.90;93.70;;;;;;5012854;28;20056;-76
2021/10/20 02:15:40;;;;;;;7.75;3.92;;;13.90;93.70;;;;;;5048757;27;20469;-76
2021/10/20 02:18:06;;;;;;;7.50;3.42;;;13.90;93.60;;;;;;5044872;28;20552;-76
2021/10/20 02:20:31;;;;;;;7.22;3.22;;;13.90;93.60;;;;;;5014435;28;20688;-76
2021/10/20 02:22:57;;;;;;;3.83;3.20;;;13.90;93.60;;;;;;5053288;27;20435;-76
2021/10/20 02:25:23;;;;;;;4.50;3.30;;;14.00;93.60;;;;;;5032571;28;20057;-76
2021/10/20 02:27:50;;;;;;;6.18;3.53;;;14.00;93.50;;;;;;5043733;28;20082;-75
2021/10/20 02:30:15;;;;;;;5.00;3.00;;;14.00;93.50;;;;;;5029818;28;20400;-76
2021/10/20 02:32:41;;;;;;;3.83;3.00;;;14.00;93.60;;;;;;5037397;28;20030;-75
2021/10/20 02:35:09;;;;;;;4.03;3.00;;;14.00;93.60;;;;;;5055844;27;20033;-76
2021/10/20 02:37:35;;;;;;;8.02;4.00;;;13.90;93.60;;;;;;5048537;28;20443;-75
2021/10/20 02:40:02;;;;;;;7.00;3.17;;;13.90;93.70;;;;;;5043182;28;20060;-75
2021/10/20 02:42:28;;;;;;;8.85;3.60;;;13.90;93.80;;;;;;5042830;27;20055;-75
2021/10/20 02:44:54;;;;;;;5.30;3.30;;;13.90;94.10;;;;;;5047260;28;20056;-75
2021/10/20 02:47:19;;;;;;;6.07;3.22;;;13.90;93.80;;;;;;5045807;28;20021;-75
2021/10/20 02:49:45;;;;;;;6.25;3.42;;;13.90;93.80;;;;;;5008804;28;20160;-76
2021/10/20 02:52:11;;;;;;;6.57;3.67;;;13.90;93.80;;;;;;5043623;27;20037;-76
2021/10/20 02:54:36;;;;;;;5.28;4.03;;;13.90;93.80;;;;;;5022453;28;20025;-76
2021/10/20 02:57:02;;;;;;;6.60;3.55;;;13.90;93.90;;;;;;5044822;28;20033;-75
2021/10/20 02:59:28;;;;;;;5.47;3.50;;;14.00;93.90;;;;;;5041082;28;20119;-75
2021/10/20 03:01:54;;;;;;;5.72;3.25;;;14.00;93.80;;;;;;5040157;28;20038;-76
2021/10/20 03:04:19;;;;;;;8.27;3.20;;;14.00;93.70;;;;;;5029156;28;20117;-76
2021/10/20 03:06:45;;;;;;;8.25;3.90;;;14.10;93.80;;;;;;5041969;28;20042;-75
2021/10/20 03:09:11;;;;;;;6.00;3.40;;;14.10;93.80;;;;;;5027227;28;20032;-75
2021/10/20 03:11:36;;;;;;;7.97;3.38;;;14.10;93.70;;;;;;5045447;27;20036;-75
2021/10/20 03:14:02;;;;;;;5.82;3.67;;;14.10;93.70;;;;;;5029737;28;20029;-75
2021/10/20 03:16:28;;;;;;;6.78;3.80;;;14.20;93.70;;;;;;5028587;28;20029;-76
2021/10/20 03:18:54;;;;;;;5.38;3.30;;;14.20;93.60;;;;;;5019138;28;20030;-75
2021/10/20 03:21:19;;;;;;;4.95;3.83;;;14.20;93.60;;;;;;5029959;28;20036;-75
2021/10/20 03:23:45;;;;;;;8.10;3.67;;;14.30;93.60;;;;;;5019385;28;20034;-75
2021/10/20 03:26:11;;;;;;;5.22;3.60;;;14.30;93.40;;;;;;5029879;28;20068;-76
2021/10/20 03:28:36;;;;;;;8.15;4.35;;;14.30;93.30;;;;;;5022461;28;20037;-76
2021/10/20 03:31:02;;;;;;;7.97;3.80;;;14.40;93.30;;;;;;5029369;28;20044;-75
2021/10/20 03:33:28;;;;;;;6.82;3.42;;;14.40;93.30;;;;;;5028000;28;20405;-75
2021/10/20 03:35:53;;;;;;;5.43;3.95;;;14.40;93.20;;;;;;5027574;28;20041;-76
2021/10/20 03:38:19;;;;;;;6.97;3.85;;;14.50;93.10;;;;;;5029786;28;20032;-76
2021/10/20 03:40:45;;;;;;;6.15;3.42;;;14.40;93.10;;;;;;5047587;28;20052;-75
2021/10/20 03:43:10;;;;;;;6.28;3.70;;;14.50;93.20;;;;;;5011131;28;20040;-76
2021/10/20 03:45:36;;;;;;;7.60;3.90;;;14.40;93.20;;;;;;5030257;28;20056;-75
2021/10/20 03:48:02;;;;;;;7.63;4.03;;;14.50;93.20;;;;;;5044878;28;20375;-76
2021/10/20 03:50:27;;;;;;;4.45;3.65;;;14.50;93.20;;;;;;5046256;28;20039;-76
2021/10/20 03:52:53;;;;;;;7.68;4.28;;;14.50;93.20;;;;;;5046965;28;20036;-76
2021/10/20 03:55:19;;;;;;;5.47;3.83;;;14.40;93.30;;;;;;5029397;28;20037;-76
2021/10/20 03:57:44;;;;;;;4.85;3.40;;;14.40;93.40;;;;;;5044885;28;20158;-76
2021/10/20 04:00:13;;;;;;;4.93;3.70;;;14.40;93.40;;;;;;5046920;28;20116;-76
2021/10/20 04:02:44;;;;;;;5.30;3.72;;;14.30;93.50;;;;;;5044384;28;20029;-75
2021/10/20 04:05:15;;;;;;;5.75;3.80;;;14.30;93.50;;;;;;5040911;28;20025;-75
2021/10/20 04:07:42;;;;;;;8.35;3.83;;;14.30;93.60;;;;;;5044442;28;20487;-76
2021/10/20 04:10:14;;;;;;;6.43;4.38;;;14.30;93.60;;;;;;5045759;28;20478;-76
2021/10/20 04:12:40;;;;;;;5.03;4.20;;;14.30;93.70;;;;;;5044024;28;20520;-75
2021/10/20 04:15:07;;;;;;;5.15;3.58;;;14.20;93.60;;;;;;5008861;28;20374;-76
2021/10/20 04:17:32;;;;;;;4.65;3.92;;;14.20;93.70;;;;;;5012668;28;20036;-76
2021/10/20 04:19:58;;;;;;;5.13;3.85;;;14.20;93.70;;;;;;5023817;28;20033;-75
2021/10/20 04:22:24;;;;;;;7.45;4.10;;;14.20;93.70;;;;;;5029043;28;20528;-75
2021/10/20 04:24:50;;;;;;;9.15;4.00;;;14.20;93.70;;;;;;5012486;28;20029;-76
2021/10/20 04:27:15;;;;;;;5.28;3.90;;;14.20;93.70;;;;;;5044504;28;20081;-75
2021/10/20 04:29:41;;;;;;;7.03;3.95;;;14.20;93.70;;;;;;5047072;28;20081;-76
2021/10/20 04:32:06;;;;;;;6.85;3.88;;;14.20;93.70;;;;;;5028103;28;20107;-75
2021/10/20 04:34:32;;;;;;;6.72;3.80;;;14.20;93.80;;;;;;5046975;28;20022;-75
2021/10/20 04:36:58;;;;;;;9.88;3.88;;;14.20;93.80;;;;;;5026192;28;20039;-75
2021/10/20 04:39:23;;;;;;;6.32;4.32;;;14.10;93.80;;;;;;5028795;28;20029;-76
2021/10/20 04:41:49;;;;;;;4.47;3.72;;;14.20;93.80;;;;;;5043246;28;20483;-76
2021/10/20 04:44:16;;;;;;;10.88;4.25;;;14.20;93.80;;;;;;5025673;28;20039;-76
2021/10/20 04:46:41;;;;;;;7.93;4.05;;;14.20;93.80;;;;;;5039596;28;20027;-76
2021/10/20 04:49:07;;;;;;;10.02;4.25;;;14.20;93.80;;;;;;5039323;28;20029;-76
2021/10/20 04:51:33;;;;;;;5.50;4.20;;;14.30;93.80;;;;;;5045987;28;20029;-75
2021/10/20 04:53:58;;;;;;;6.93;4.40;;;14.30;93.70;;;;;;5043739;28;20041;-76
2021/10/20 04:56:24;;;;;;;6.57;4.28;;;14.30;93.60;;;;;;5044330;28;20037;-76
2021/10/20 04:58:50;;;;;;;8.45;4.50;;;14.30;93.50;;;;;;5044659;28;20435;-75
2021/10/20 05:01:15;;;;;;;5.45;4.38;;;14.40;93.50;;;;;;5028304;28;20072;-76
2021/10/20 05:03:41;;;;;;;8.18;4.25;;;14.40;93.50;;;;;;5018840;28;20505;-76
2021/10/20 05:06:06;;;;;;;13.13;5.05;;;14.40;93.50;;;;;;5045137;28;20037;-76
2021/10/20 05:08:32;;;;;;;7.85;4.90;;;14.40;93.40;;;;;;5025588;28;20029;-76
2021/10/20 05:10:58;;;;;;;10.20;4.43;;;14.40;93.40;;;;;;5044166;28;20041;-76
2021/10/20 05:13:24;;;;;;;6.47;4.30;;;14.40;93.40;;;;;;5041633;28;20037;-76
2021/10/20 05:15:50;;;;;;;10.40;4.53;;;14.40;93.30;;;;;;5031460;28;20033;-75
2021/10/20 05:18:16;;;;;;;7.63;4.53;;;14.40;93.30;;;;;;5030607;28;20040;-75
2021/10/20 05:20:42;;;;;;;5.60;4.13;;;14.40;93.30;;;;;;5031657;28;20032;-75
2021/10/20 05:23:10;;;;;;;8.77;4.63;;;14.40;93.20;;;;;;5047632;28;20435;-76
2021/10/20 05:25:37;;;;;;;8.03;4.80;;;14.40;93.20;;;;;;5047506;28;20678;-76
2021/10/20 05:28:04;;;;;;;10.23;4.72;;;14.40;93.20;;;;;;5045323;28;20370;-76
2021/10/20 05:30:29;;;;;;;5.07;4.22;;;14.40;93.20;;;;;;5050059;28;20116;-76
2021/10/20 05:32:55;;;;;;;8.05;4.60;;;14.50;93.10;;;;;;5028279;28;20128;-76
2021/10/20 05:35:21;;;;;;;6.70;4.38;;;14.50;93.10;;;;;;5048123;28;20043;-76
2021/10/20 05:37:51;;;;;;;5.93;3.88;;;14.50;92.90;;;;;;5040900;28;20390;-76
2021/10/20 05:40:18;;;;;;;9.75;4.60;;;14.50;92.70;;;;;;5011079;28;20106;-76
2021/10/20 05:42:44;;;;;;;7.00;4.07;;;14.60;92.70;;;;;;5048486;28;20033;-76
2021/10/20 05:45:10;;;;;;;8.23;4.38;;;14.60;92.70;;;;;;5029445;28;20022;-76
2021/10/20 05:47:36;;;;;;;6.63;4.53;;;14.60;92.70;;;;;;5042014;28;20024;-76
2021/10/20 05:50:02;;;;;;;7.80;4.68;;;14.60;92.80;;;;;;5047472;28;20067;-76
2021/10/20 05:52:28;;;;;;;7.10;4.25;;;14.60;92.90;;;;;;5052125;28;20393;-76
2021/10/20 05:54:54;;;;;;;4.85;3.95;;;14.60;93.00;;;;;;5025724;28;20045;-76
2021/10/20 05:57:21;;;;;;;7.75;4.15;;;14.50;93.00;;;;;;5029716;28;20509;-76
2021/10/20 05:59:47;;;;;;;8.43;4.85;;;14.50;93.10;;;;;;5048964;28;20029;-76
2021/10/20 06:02:14;;;;;;;7.90;4.45;;;14.50;93.20;;;;;;5044194;28;20018;-76
2021/10/20 06:04:40;;;;;;;7.82;4.57;;;14.60;93.20;;;;;;5031064;28;20021;-76
2021/10/20 06:07:06;;;;;;;8.90;4.85;;;14.60;93.20;;;;;;5042560;28;20090;-76
2021/10/20 06:09:34;;;;;;;7.35;3.97;;;14.60;93.10;;;;;;5048035;28;20408;-76
2021/10/20 06:12:00;;;;;;;11.90;4.47;;;14.60;93.00;;;;;;5028869;27;20050;-75
2021/10/20 06:14:27;;;;;;;7.03;4.47;;;14.70;92.90;;;;;;5047647;28;20032;-76
2021/10/20 06:16:52;;;;;;;7.93;4.15;;;14.70;92.80;;;;;;5010478;28;20044;-76
2021/10/20 06:19:18;;;;;;;5.45;4.25;;;14.70;92.80;;;;;;5027474;28;20030;-75
2021/10/20 06:21:44;;;;;;;6.60;4.70;;;14.80;92.80;;;;;;5035899;27;20122;-76
2021/10/20 06:24:10;;;;;;;5.28;4.25;;;14.80;92.70;;;;;;5027182;28;20037;-76
2021/10/20 06:26:35;;;;;;;6.95;4.10;;;14.80;92.70;;;;;;5027449;28;20474;-75
2021/10/20 06:29:02;;;;;;;7.10;4.57;;;14.80;92.70;;;;;;5029004;28;20036;-76
2021/10/20 06:31:28;;;;;;;13.07;4.72;;;14.80;92.70;;;;;;5045919;28;20029;-76
2021/10/20 06:33:53;;;;;;;6.32;4.25;;;14.80;92.70;;;;;;5048782;28;20209;-76
2021/10/20 06:36:29;;;;;;;6.63;4.53;;;14.80;92.80;;;;;;5042919;28;20074;-76
2021/10/20 06:38:55;;;;;;;6.22;4.10;;;14.80;92.80;;;;;;5030828;28;20040;-76
2021/10/20 06:41:21;;;;;;;9.30;4.57;;;14.90;92.70;;;;;;5029866;28;20048;-76
2021/10/20 06:43:47;;;;;;;7.18;4.53;;;14.90;92.60;;;;;;5031138;28;20029;-76
2021/10/20 06:46:13;;;;;;;8.07;4.63;;;14.90;92.70;;;;;;5048410;28;20490;-76
2021/10/20 06:48:39;;;;;;;7.68;4.57;;;14.90;92.80;;;;;;5028254;28;20043;-76
2021/10/20 06:51:06;;;;;;;6.93;4.50;;;14.90;92.70;;;;;;5017020;28;20078;-78
2021/10/20 06:53:31;;;;;;;7.18;4.68;;;14.90;92.60;;;;;;5046039;28;20033;-75
2021/10/20 06:55:57;;;;;;;7.78;4.55;;;14.90;92.60;;;;;;5045036;28;20745;-76
2021/10/20 06:58:23;;;;;;;6.65;4.35;;;15.00;92.60;;;;;;5030214;28;20116;-76
2021/10/20 07:00:49;;;;;;;6.88;4.90;;;15.00;92.70;;;;;;5027700;28;20029;-76
2021/10/20 07:03:15;;;;;;;8.73;4.55;;;15.00;92.80;;;;;;5048000;28;20021;-76
2021/10/20 07:05:40;;;;;;;8.27;4.65;;;15.00;92.90;;;;;;5023073;28;20104;-76
2021/10/20 07:08:06;;;;;;;9.02;4.47;;;15.00;92.70;;;;;;5027816;28;20032;-76
2021/10/20 07:10:32;;;;;;;12.35;4.80;;;15.00;92.70;;;;;;5013115;28;20111;-76
2021/10/20 07:12:57;;;;;;;6.20;4.60;;;15.00;92.70;;;;;;5042225;28;20033;-76
2021/10/20 07:15:23;;;;;;;9.40;4.85;;;15.10;92.70;;;;;;5048196;28;20033;-76
2021/10/20 07:17:49;;;;;;;9.88;4.82;;;15.10;92.80;;;;;;5042690;28;20033;-76
2021/10/20 07:20:15;;;;;;;9.40;5.13;;;15.10;92.80;;;;;;5005826;28;20497;-76
2021/10/20 07:22:40;;;;;;;7.47;4.85;;;15.10;92.90;;;;;;5047907;28;20017;-76
2021/10/20 07:25:11;;;;;;;11.50;4.95;;;15.10;92.80;;;;;;5024667;28;20377;-78
2021/10/20 07:27:38;;;;;;;9.07;4.93;;;15.10;92.80;;;;;;5037429;28;20136;-78
2021/10/20 07:30:06;;;;;;;5.88;4.78;;;15.20;92.80;;;;;;5020862;28;20033;-78
2021/10/20 07:32:32;;;;;;;6.00;4.80;;;15.20;92.90;;;;;;5012876;28;20025;-77
2021/10/20 07:34:58;;;;;;;7.13;4.78;;;15.30;92.90;;;;;;5025700;28;20429;-77
2021/10/20 07:37:23;;;;;;;8.25;5.03;;;15.30;92.90;;;;;;5061617;27;20037;-76
2021/10/20 07:39:49;;;;;;;6.35;4.47;;;15.30;92.90;;;;;;5028987;28;20065;-77
2021/10/20 07:42:15;;;;;;;6.60;4.57;;;15.30;92.90;;;;;;5044490;28;20040;-77
2021/10/20 07:44:41;;;;;;;8.60;4.78;;;15.40;92.80;;;;;;5034714;28;20504;-77
2021/10/20 07:47:06;;;;;;;5.35;4.57;;;15.40;92.80;;;;;;5032140;28;20037;-77
2021/10/20 07:49:32;;;;;;;7.07;4.65;;;15.40;92.80;;;;;;5021661;28;20029;-77
2021/10/20 07:51:57;;;;;;;8.82;5.28;;;15.50;92.70;;;;;;5029623;28;20037;-77
2021/10/20 07:54:26;;;;;;;7.30;4.85;;;15.50;92.70;;;;;;5028568;28;20029;-77
2021/10/20 07:56:52;;;;;;;;;;;15.60;92.60;;;;;;5039974;28;20033;-77
2021/10/20 07:59:22;;;;;;;7.60;4.95;;;15.70;92.40;;;;;;5045064;28;19913;-77
2021/10/20 08:01:48;;;;;;;7.07;5.10;;;15.70;92.60;;;;;;5043202;28;20041;-77
2021/10/20 08:04:14;;;;;;;10.57;5.10;;;15.70;92.50;;;;;;5029094;28;20027;-77
2021/10/20 08:06:39;;;;;;;9.85;4.70;;;15.70;92.30;;;;;;5026921;28;20021;-78
2021/10/20 08:09:05;;;;;;;7.28;4.68;;;15.80;92.50;;;;;;5043772;28;20029;-77
2021/10/20 08:11:31;;;;;;;6.20;4.95;;;15.80;92.40;;;;;;5045834;28;20017;-77
2021/10/20 08:13:56;;;;;;;6.68;5.10;;;15.90;92.40;;;;;;5027245;28;20393;-77
2021/10/20 08:16:22;;;;;;;8.35;5.20;;;15.90;92.30;;;;;;5038903;28;20037;-77
2021/10/20 08:18:48;;;;;;;6.28;4.82;;;15.90;92.10;;;;;;5046833;28;20032;-77
2021/10/20 08:21:14;;;;;;;6.55;4.45;;;16.00;92.10;;;;;;5028353;28;20042;-78
2021/10/20 08:23:41;;;;;;;10.07;5.28;;;15.90;92.00;;;;;;5025510;28;20026;-77
2021/10/20 08:26:08;;;;;;;7.45;4.70;;;16.10;91.90;;;;;;5024914;28;20369;-77
2021/10/20 08:28:35;;;;;;;13.32;4.68;;;16.10;91.70;;;;;;5024340;28;20013;-77
2021/10/20 08:31:00;;;;;;;8.65;4.75;;;16.20;91.60;;;;;;5038890;28;20141;-77
2021/10/20 08:33:26;;;;;;;8.45;4.50;;;16.20;91.30;;;;;;5024382;28;20029;-77
2021/10/20 08:35:52;;;;;;;7.50;4.68;;;16.20;91.40;;;;;;5024846;28;20033;-77
2021/10/20 08:38:18;;;;;;;7.65;4.40;;;16.20;91.10;;;;;;5039088;28;20072;-77
2021/10/20 08:40:47;;;;;;;7.70;4.75;;;16.10;91.50;;;;;;5036426;28;20053;-77
2021/10/20 08:43:20;;;;;;;10.27;5.10;;;16.10;91.70;;;;;;5024918;28;20025;-77
2021/10/20 08:45:47;;;;;;;6.93;5.47;;;16.10;91.90;;;;;;5004687;28;20042;-77
2021/10/20 08:48:14;;;;;;;7.22;5.60;;;16.00;92.30;;;;;;5020784;28;20044;-77
2021/10/20 08:50:40;;;;;;;9.35;5.60;;;15.90;92.60;;;;;;5027690;28;20036;-77
2021/10/20 08:53:06;;;;;;;7.72;5.40;;;15.90;92.80;;;;;;5042553;28;20116;-77
2021/10/20 08:55:33;;;;;;;11.00;5.22;;;15.90;93.00;;;;;;5008597;28;20430;-77
2021/10/20 08:58:00;;;;;;;9.55;5.60;;;15.90;93.30;;;;;;5026051;28;20033;-77
2021/10/20 09:00:27;;;;;;;9.15;6.07;;;15.90;93.20;;;;;;5040051;28;20170;-77
2021/10/20 09:02:53;;;;;;;9.77;5.65;;;15.80;93.40;;;;;;5041684;28;20037;-77
2021/10/20 09:05:22;;;;;;;10.48;5.70;;;15.90;93.40;;;;;;5026700;28;20078;-77
2021/10/20 09:07:51;;;;;;;9.48;5.63;;;15.90;93.30;;;;;;5025336;28;20048;-77
2021/10/20 09:10:17;;;;;;;6.93;5.00;;;15.90;93.10;;;;;;5056546;28;20032;-77
2021/10/20 09:12:43;;;;;;;8.00;5.97;;;16.00;93.00;;;;;;5029795;28;20625;-77
2021/10/20 09:15:20;;;;;;;7.63;5.30;;;16.10;92.70;;;;;;5048464;28;20037;-78
2021/10/20 09:17:47;;;;;;;8.95;5.75;;;16.10;92.60;;;;;;5043134;28;20021;-78
2021/10/20 09:20:17;;;;;;;6.72;5.25;;;16.20;92.70;;;;;;5033052;28;20032;-78
2021/10/20 09:22:54;;;;;;;12.68;5.18;;;16.20;92.50;;;;;;5039280;28;20025;-78
2021/10/20 09:25:19;;;;;;;8.27;5.13;;;16.40;92.10;;;;;;5051233;28;20025;-78
2021/10/20 09:27:45;;;;;;;11.15;5.53;;;16.40;91.90;;;;;;5033496;28;20450;-78
2021/10/20 09:30:13;;;;;;;12.20;4.97;;;16.50;91.70;;;;;;5033735;28;20033;-78
2021/10/20 09:32:39;;;;;;;9.13;5.38;;;16.60;91.80;;;;;;5017579;28;20462;-77
2021/10/20 09:35:06;;;;;;;10.07;4.88;;;16.60;91.60;;;;;;5026053;28;20116;-79
2021/10/20 09:37:33;;;;;;;8.75;5.28;;;16.70;91.70;;;;;;5025352;28;20057;-78
2021/10/20 09:40:08;;;;;;;6.30;4.85;;;16.80;91.70;;;;;;5034716;28;20052;-79
2021/10/20 09:42:48;;;;;;;6.85;5.10;;;16.90;91.50;;;;;;5015810;28;20034;-78
2021/10/20 09:45:16;;;;;;;6.05;4.47;;;16.90;90.80;;;;;;5031559;28;20041;-78
2021/10/20 09:47:42;;;;;;;7.57;4.55;;;16.90;90.90;;;;;;5016567;28;20078;-78
2021/10/20 09:50:09;;;;;;;8.45;4.80;;;16.90;91.20;;;;;;5045023;28;20101;-78
2021/10/20 09:52:53;;;;;;;8.55;5.20;;;16.90;91.10;;;;;;5025556;28;20117;-78
2021/10/20 09:55:27;;;;;;;8.57;5.03;;;16.90;90.90;;;;;;5040740;28;20573;-78
2021/10/20 09:58:14;;;;;;;10.52;5.50;;;17.00;90.80;;;;;;5044052;27;20044;-78
2021/10/20 10:00:41;;;;;;;6.97;5.05;;;17.00;91.00;;;;;;5029065;28;20435;-78
2021/10/20 10:03:07;;;;;;;7.72;5.05;;;17.00;90.80;;;;;;5020692;28;20021;-78
2021/10/20 10:05:33;;;;;;;8.23;5.20;;;17.10;91.10;;;;;;5024739;28;20032;-78
2021/10/20 10:07:59;;;;;;;8.90;5.50;;;17.10;91.00;;;;;;5019376;28;20030;-78
2021/10/20 10:10:25;;;;;;;5.93;4.30;;;17.20;91.20;;;;;;5041664;28;20077;-78
2021/10/20 10:12:58;;;;;;;9.38;5.15;;;17.20;90.80;;;;;;5032537;28;20041;-78
2021/10/20 10:15:26;;;;;;;7.05;5.38;;;17.20;90.80;;;;;;5021623;28;20030;-79
2021/10/20 10:17:55;;;;;;;9.18;5.18;;;17.20;91.10;;;;;;5044189;28;20113;-78
2021/10/20 10:20:23;;;;;;;9.13;5.43;;;17.20;91.20;;;;;;5015262;28;20026;-78
2021/10/20 10:22:50;;;;;;;8.63;5.00;;;17.30;91.00;;;;;;5031289;28;20180;-78
2021/10/20 10:25:21;;;;;;;7.68;5.40;;;17.30;91.00;;;;;;5024533;28;20537;-78
2021/10/20 10:28:08;;;;;;;6.30;5.22;;;17.40;90.90;;;;;;5032351;28;20100;-78
2021/10/20 10:30:48;;;;;;;7.18;5.18;;;17.50;90.70;;;;;;5024229;28;20053;-78
2021/10/20 10:33:26;;;;;;;7.35;5.47;;;17.50;90.50;;;;;;5027093;28;20025;-78
2021/10/20 10:36:10;;;;;;;7.70;5.22;;;17.60;90.60;;;;;;5031247;28;20060;-78
2021/10/20 10:38:49;;;;;;;11.85;5.63;;;17.60;90.50;;;;;;5045024;28;20519;-78
2021/10/20 10:41:33;;;;;;;7.57;5.43;;;17.60;90.40;;;;;;5047071;28;20037;-78
2021/10/20 10:44:11;;;;;;;9.82;5.60;;;17.60;90.50;;;;;;5057805;27;20037;-78
2021/10/20 10:46:40;;;;;;;9.35;5.43;;;17.60;90.20;;;;;;5029469;28;20112;-78
2021/10/20 10:49:29;;;;;;;12.68;6.10;;;17.60;90.50;;;;;;5014473;28;20401;-78
2021/10/20 10:52:18;;;;;;;9.80;4.78;;;17.60;90.40;;;;;;5046080;28;20086;-78
2021/10/20 10:54:58;;;;;;;7.95;4.93;;;17.60;90.70;;;;;;5031776;28;20108;-78
2021/10/20 10:57:35;;;;;;;8.27;4.60;;;17.60;90.50;;;;;;5026041;28;20082;-78
2021/10/20 11:00:08;;;;;;;9.00;5.47;;;17.70;90.30;;;;;;5052197;28;20035;-78
2021/10/20 11:02:54;;;;;;;8.52;5.15;;;17.70;90.70;;;;;;5045215;28;20033;-79
2021/10/20 11:05:24;;;;;;;6.50;5.20;;;17.70;90.50;;;;;;5048460;28;20070;-78
2021/10/20 11:07:59;;;;;;;8.55;5.25;;;17.70;90.40;;;;;;5035503;27;20140;-78
2021/10/20 11:10:25;;;;;;;7.78;5.68;;;17.60;90.60;;;;;;5051450;28;20026;-78
2021/10/20 11:12:52;;;;;;;6.30;5.28;;;17.70;90.60;;;;;;5024853;28;20105;-79
2021/10/20 11:15:19;;;;;;;6.43;5.25;;;17.80;90.40;;;;;;5018685;28;20080;-78
2021/10/20 11:17:46;;;;;;;7.85;5.30;;;17.80;90.60;;;;;;5027799;28;20039;-78
2021/10/20 11:20:14;;;;;;;9.02;5.28;;;17.80;90.50;;;;;;5025237;28;20036;-78
2021/10/20 11:22:47;;;;;;;7.57;5.20;;;17.80;90.50;;;;;;5046804;28;20025;-78
2021/10/20 11:25:14;;;;;;;7.95;4.75;;;17.80;90.60;;;;;;5045866;28;20036;-78
2021/10/20 11:27:44;;;;;;;6.65;5.40;;;17.80;90.40;;;;;;5030897;28;20474;-78
2021/10/20 11:30:10;;;;;;;8.43;5.10;;;17.80;90.30;;;;;;5041487;28;20055;-77
2021/10/20 11:32:36;;;;;;;9.93;5.30;;;17.80;90.50;;;;;;5046370;28;20068;-77
2021/10/20 11:35:03;;;;;;;9.00;4.90;;;17.80;90.40;;;;;;5015157;28;20036;-77
2021/10/20 11:37:28;;;;;;;7.22;5.03;;;17.80;90.40;;;;;;5017150;28;20734;-77
2021/10/20 11:40:03;;;;;;;11.98;5.20;;;17.80;90.30;;;;;;5024900;28;20093;-77
2021/10/20 11:42:29;;;;;;;10.63;5.00;;;17.70;90.30;;;;;;5020943;28;20033;-77
2021/10/20 11:45:03;;;;;;;9.75;5.25;;;17.70;90.40;;;;;;5025637;28;20036;-77
2021/10/20 11:47:30;;;;;;;6.68;4.82;;;17.60;90.40;;;;;;5045106;28;20040;-77
2021/10/20 11:49:56;;;;;;;7.85;4.32;;;17.60;90.40;;;;;;5027620;28;20438;-77
2021/10/20 11:52:25;;;;;;;6.13;4.97;;;17.50;90.50;;;;;;5030373;28;20485;-77
2021/10/20 11:54:54;;;;;;;9.15;4.97;;;17.50;90.60;;;;;;5016822;28;20557;-77
2021/10/20 11:57:21;;;;;;;13.23;5.20;;;17.50;90.70;;;;;;5027736;28;20060;-77
2021/10/20 11:59:48;;;;;;;7.63;5.13;;;17.40;90.80;;;;;;5027900;28;20501;-77
2021/10/20 12:02:14;;;;;;;10.52;5.20;;;17.40;90.70;;;;;;5000969;28;20034;-77
2021/10/20 12:04:42;;;;;;;7.13;5.45;;;17.30;91.00;;;;;;5027194;28;20477;-77
2021/10/20 12:07:09;;;;;;;7.03;5.22;;;17.30;91.20;;;;;;5076547;28;20102;-77
2021/10/20 12:09:42;;;;;;;6.38;5.28;;;17.30;91.10;;;;;;5027723;28;20025;-77
2021/10/20 12:12:11;;;;;;;11.43;5.85;;;17.20;91.20;;;;;;5028134;28;20037;-77
2021/10/20 12:14:44;;;;;;;9.48;5.88;;;17.20;91.50;;;;;;5033512;28;20108;-76
2021/10/20 12:17:10;;;;;;;10.30;6.82;;;17.20;91.90;;;;;;5020894;28;20416;-76
2021/10/20 12:19:38;;;;;;;12.15;6.63;;;17.10;92.20;;;;;;5025426;28;20032;-77
2021/10/20 12:22:14;;;;;;;10.37;6.50;;;17.10;92.40;;;;;;5037078;28;20036;-76
2021/10/20 12:24:45;;;;;;;11.65;7.10;;;17.00;92.60;;;;;;5044371;28;20039;-79
2021/10/20 12:27:12;;;;;;;10.57;6.60;;;17.00;92.70;;;;;;5048625;27;20074;-79
2021/10/20 12:29:38;;;;;;;9.15;6.40;;;17.00;92.80;;;;;;5038731;28;20024;-79
2021/10/20 12:32:07;;;;;;;11.80;6.20;;;17.00;92.80;;;;;;4997432;28;20498;-79
2021/10/20 12:34:33;;;;;;;;;;;17.00;92.90;;;;;;5032556;28;20116;-79
2021/10/20 12:36:59;;;;;;;9.82;7.07;;;17.00;93.00;;;;;;5013897;28;20008;-79
2021/10/20 12:39:26;;;;;;;8.90;6.05;;;17.00;93.10;;;;;;5013865;28;20048;-79
2021/10/20 12:41:52;;;;;;;10.90;7.03;;;17.00;93.20;;;;;;5030413;28;20025;-79
2021/10/20 12:44:17;;;;;;;9.75;6.72;;;17.00;93.20;;;;;;5032279;28;20024;-79
2021/10/20 12:46:43;;;;;;;8.43;6.43;;;17.00;93.20;;;;;;5032465;28;20041;-79